createdAt,value
2022-10-19T00:02:23.759Z,143.13
2022-10-19T00:04:50.401Z,145.30
2022-10-19T00:07:16.981Z,143.35
2022-10-19T00:09:44.678Z,140.10
2022-10-19T00:12:13.021Z,149.52
2022-10-19T00:14:39.707Z,145.27
2022-10-19T00:17:06.368Z,147.55
2022-10-19T00:19:33.124Z,146.15
2022-10-19T00:21:59.783Z,145.70
2022-10-19T00:24:26.394Z,139.98
2022-10-19T00:26:53.035Z,147.07
2022-10-19T00:29:19.810Z,143.02
2022-10-19T00:31:46.447Z,145.10
2022-10-19T00:34:13.112Z,145.93
2022-10-19T00:36:41.431Z,143.75
2022-10-19T00:39:13.777Z,146.98
2022-10-19T00:41:41.818Z,140.13
2022-10-19T00:44:11.362Z,139.95
2022-10-19T00:46:46.402Z,148.98
2022-10-19T00:49:20.472Z,143.60
2022-10-19T00:51:58.295Z,145.85
2022-10-19T00:56:54.974Z,140.25
2022-10-19T00:59:25.160Z,141.10
2022-10-19T01:01:53.102Z,147.50
2022-10-19T01:04:24.679Z,139.68
2022-10-19T01:06:52.456Z,148.25
2022-10-19T01:09:19.184Z,142.00
2022-10-19T01:12:15.252Z,141.73
2022-10-19T01:14:44.824Z,143.02
2022-10-19T01:17:39.588Z,141.55
2022-10-19T01:20:28.099Z,136.98
2022-10-19T01:22:54.661Z,137.23
2022-10-19T01:25:36.552Z,145.07
2022-10-19T01:28:03.165Z,141.68
2022-10-19T01:31:02.030Z,138.27
2022-10-19T01:33:34.586Z,151.20
2022-10-19T01:36:25.572Z,143.90
2022-10-19T01:39:13.402Z,148.98
2022-10-19T01:41:57.076Z,146.90
2022-10-19T01:44:34.572Z,139.55
2022-10-19T01:47:07.100Z,145.73
2022-10-19T01:50:18.108Z,144.77
2022-10-19T01:52:44.868Z,136.73
2022-10-19T01:55:14.840Z,136.55
2022-10-19T01:57:46.448Z,144.07
2022-10-19T02:00:16.543Z,136.40
2022-10-19T02:02:48.119Z,137.57
2022-10-19T02:05:18.858Z,140.10
2022-10-19T02:07:49.629Z,140.25
2022-10-19T02:10:16.381Z,136.68
2022-10-19T02:12:43.908Z,140.10
2022-10-19T02:15:16.849Z,145.75
2022-10-19T02:17:49.683Z,138.50
2022-10-19T02:20:17.388Z,140.15
2022-10-19T02:22:44.778Z,140.07
2022-10-19T02:25:12.022Z,140.95
2022-10-19T02:27:42.107Z,145.18
2022-10-19T02:30:11.034Z,139.13
2022-10-19T02:32:37.748Z,139.50
2022-10-19T02:35:05.133Z,149.05
2022-10-19T02:37:31.859Z,136.82
2022-10-19T02:39:58.693Z,145.45
2022-10-19T02:42:34.703Z,133.50
2022-10-19T02:45:11.852Z,142.70
2022-10-19T02:47:44.909Z,147.32
2022-10-19T02:50:12.018Z,136.88
2022-10-19T02:52:40.219Z,139.93
2022-10-19T02:55:07.977Z,145.55
2022-10-19T02:57:35.001Z,137.15
2022-10-19T03:00:03.985Z,143.60
2022-10-19T03:02:30.652Z,141.68
2022-10-19T03:04:57.385Z,138.07
2022-10-19T03:07:24.608Z,144.65
2022-10-19T03:09:51.361Z,137.88
2022-10-19T03:12:18.545Z,137.55
2022-10-19T03:14:45.192Z,144.32
2022-10-19T03:17:11.984Z,135.55
2022-10-19T03:19:38.807Z,144.10
2022-10-19T03:22:06.008Z,141.82
2022-10-19T03:24:33.640Z,134.15
2022-10-19T03:27:00.414Z,136.63
2022-10-19T03:29:27.109Z,146.88
2022-10-19T03:31:53.788Z,137.60
2022-10-19T03:34:20.420Z,139.45
2022-10-19T03:36:47.090Z,139.07
2022-10-19T03:39:15.546Z,134.45
2022-10-19T03:41:43.101Z,147.65
2022-10-19T03:44:10.855Z,136.23
2022-10-19T03:46:38.205Z,130.82
2022-10-19T03:49:05.396Z,140.30
2022-10-19T03:51:33.130Z,132.95
2022-10-19T03:54:13.014Z,142.98
2022-10-19T03:56:39.626Z,145.65
2022-10-19T03:59:07.100Z,140.45
2022-10-19T04:01:37.224Z,144.80
2022-10-19T04:04:07.691Z,137.35
2022-10-19T04:06:39.712Z,137.40
2022-10-19T04:09:08.128Z,142.80
2022-10-19T04:11:35.612Z,143.35
2022-10-19T04:14:02.906Z,135.77
2022-10-19T04:16:31.368Z,135.10
2022-10-19T04:18:58.811Z,136.45
2022-10-19T04:21:34.577Z,138.95
2022-10-19T04:24:06.968Z,135.35
2022-10-19T04:26:34.696Z,134.85
2022-10-19T04:29:01.871Z,137.65
2022-10-19T04:31:29.042Z,142.07
2022-10-19T04:33:56.391Z,144.02
2022-10-19T04:36:23.926Z,137.93
2022-10-19T04:38:50.809Z,140.07
2022-10-19T04:41:20.339Z,142.00
2022-10-19T04:43:47.892Z,135.50
2022-10-19T04:46:17.316Z,131.18
2022-10-19T04:48:45.208Z,138.43
2022-10-19T04:51:12.720Z,132.65
2022-10-19T04:53:41.313Z,135.75
2022-10-19T04:56:12.276Z,134.20
2022-10-19T04:58:38.911Z,142.02
2022-10-19T05:01:11.281Z,134.27
2022-10-19T05:03:38.667Z,134.15
2022-10-19T05:06:05.834Z,134.52
2022-10-19T05:08:33.699Z,132.90
2022-10-19T05:11:04.967Z,132.18
2022-10-19T05:13:33.020Z,143.55
2022-10-19T05:16:01.451Z,134.30
2022-10-19T05:18:28.962Z,145.60
2022-10-19T05:21:10.797Z,147.55
2022-10-19T05:23:38.190Z,137.57
2022-10-19T05:26:06.671Z,140.60
2022-10-19T05:28:34.306Z,133.23
2022-10-19T05:31:12.714Z,135.35
2022-10-19T05:33:40.355Z,153.23
2022-10-19T05:36:28.165Z,140.38
2022-10-19T05:38:56.797Z,133.25
2022-10-19T05:41:24.989Z,135.68
2022-10-19T05:44:00.186Z,132.77
2022-10-19T05:46:28.968Z,140.15
2022-10-19T05:48:57.329Z,133.48
2022-10-19T05:51:25.922Z,134.60
2022-10-19T05:53:53.960Z,145.00
2022-10-19T05:56:23.832Z,144.18
2022-10-19T05:58:51.076Z,157.30
2022-10-19T06:01:19.489Z,149.45
2022-10-19T06:03:47.388Z,146.00
2022-10-19T06:06:14.106Z,138.40
2022-10-19T06:08:40.760Z,134.77
2022-10-19T06:11:08.768Z,140.82
2022-10-19T06:13:36.402Z,145.55
2022-10-19T06:16:03.641Z,145.15
2022-10-19T06:18:30.337Z,132.90
2022-10-19T06:21:12.943Z,134.63
2022-10-19T06:23:40.129Z,134.38
2022-10-19T06:26:09.924Z,136.35
2022-10-19T06:28:38.673Z,135.20
2022-10-19T06:31:08.511Z,147.02
2022-10-19T06:33:36.732Z,137.68
2022-10-19T06:36:17.750Z,144.60
2022-10-19T06:38:44.930Z,144.25
2022-10-19T06:41:12.161Z,135.77
2022-10-19T06:43:39.357Z,145.43
2022-10-19T06:46:07.702Z,146.43
2022-10-19T06:48:34.690Z,137.07
2022-10-19T06:51:06.251Z,136.05
2022-10-19T06:53:34.464Z,136.85
2022-10-19T06:56:03.109Z,135.88
2022-10-19T06:58:30.874Z,138.75
2022-10-19T07:00:59.338Z,140.02
2022-10-19T07:03:29.218Z,149.85
2022-10-19T07:05:57.991Z,141.80
2022-10-19T07:08:26.343Z,140.50
2022-10-19T07:10:54.922Z,144.80
2022-10-19T07:13:22.697Z,148.95
2022-10-19T07:15:49.961Z,144.85
2022-10-19T07:18:16.832Z,143.20
2022-10-19T07:20:43.461Z,149.80
2022-10-19T07:23:10.080Z,142.07
2022-10-19T07:25:36.725Z,143.45
2022-10-19T07:28:04.210Z,142.85
2022-10-19T07:30:31.825Z,153.32
2022-10-19T07:32:58.449Z,145.90
2022-10-19T07:35:25.136Z,152.73
2022-10-19T07:37:51.758Z,146.35
2022-10-19T07:40:18.356Z,147.57
2022-10-19T07:42:44.941Z,156.95
2022-10-19T07:45:11.616Z,146.82
2022-10-19T07:47:38.465Z,148.63
2022-10-19T07:50:05.441Z,150.40
2022-10-19T07:52:36.019Z,161.52
2022-10-19T07:55:03.765Z,159.38
2022-10-19T07:57:30.335Z,151.10
2022-10-19T07:59:57.013Z,153.65
2022-10-19T08:02:30.777Z,148.93
2022-10-19T08:05:10.512Z,151.25
2022-10-19T08:07:37.215Z,157.23
2022-10-19T08:10:04.736Z,152.48
2022-10-19T08:12:31.431Z,158.98
2022-10-19T08:14:58.296Z,157.05
2022-10-19T08:17:24.986Z,150.02
2022-10-19T08:19:51.662Z,162.18
2022-10-19T08:22:18.251Z,158.50
2022-10-19T08:24:44.884Z,157.05
2022-10-19T08:27:11.569Z,149.50
2022-10-19T08:29:38.229Z,160.07
2022-10-19T08:32:05.154Z,166.52
2022-10-19T08:34:33.317Z,153.30
2022-10-19T08:37:06.798Z,159.18
2022-10-19T08:39:41.574Z,157.73
2022-10-19T08:42:23.564Z,160.65
2022-10-19T08:44:50.188Z,157.27
2022-10-19T08:47:23.181Z,152.52
2022-10-19T08:50:00.400Z,155.77
2022-10-19T08:52:34.220Z,149.43
2022-10-19T08:55:09.104Z,155.55
2022-10-19T08:57:47.978Z,163.13
2022-10-19T09:00:21.869Z,154.88
2022-10-19T09:03:27.141Z,148.95
2022-10-19T09:06:28.565Z,153.25
2022-10-19T09:08:57.138Z,149.18
2022-10-19T09:11:35.610Z,152.90
2022-10-19T09:14:13.831Z,156.55
2022-10-19T09:16:40.572Z,160.38
2022-10-19T09:19:25.275Z,152.77
2022-10-19T09:22:01.937Z,152.73
2022-10-19T09:24:29.404Z,155.18
2022-10-19T09:26:59.475Z,153.98
2022-10-19T09:29:33.554Z,153.45
2022-10-19T09:32:03.800Z,153.73
2022-10-19T09:34:36.537Z,154.60
2022-10-19T09:37:03.490Z,165.43
2022-10-19T09:39:31.074Z,157.07
2022-10-19T09:42:04.926Z,159.70
2022-10-19T09:44:32.439Z,160.88
2022-10-19T09:46:59.112Z,161.05
2022-10-19T09:49:43.178Z,161.57
2022-10-19T09:52:28.687Z,162.18
2022-10-19T09:55:27.604Z,166.27
2022-10-19T09:58:06.488Z,160.32
2022-10-19T10:00:39.800Z,156.27
2022-10-19T10:03:07.734Z,167.30
2022-10-19T10:05:39.803Z,169.80
2022-10-19T10:08:15.567Z,165.27
2022-10-19T10:13:24.543Z,164.63
2022-10-19T10:16:03.812Z,166.70
2022-10-19T10:18:30.502Z,170.20
2022-10-19T10:20:59.297Z,164.23
2022-10-19T10:23:29.529Z,166.07
2022-10-19T10:25:58.265Z,160.57
2022-10-19T10:28:27.948Z,164.48
2022-10-19T10:31:07.475Z,163.05
2022-10-19T10:33:44.648Z,164.57
2022-10-19T10:36:12.528Z,170.98
2022-10-19T10:38:47.428Z,160.57
2022-10-19T10:41:23.147Z,161.67
2022-10-19T10:46:42.569Z,167.80
2022-10-19T10:49:21.121Z,164.82
2022-10-19T10:51:53.157Z,155.88
2022-10-19T10:54:30.410Z,161.35
2022-10-19T10:57:06.787Z,166.65
2022-10-19T10:59:44.684Z,163.32
2022-10-19T11:02:30.387Z,168.40
2022-10-19T11:05:23.733Z,161.50
2022-10-19T11:07:56.720Z,152.63
2022-10-19T11:10:37.153Z,168.23
2022-10-19T11:13:22.453Z,167.95
2022-10-19T11:16:17.653Z,160.73
2022-10-19T11:18:57.036Z,167.55
2022-10-19T11:21:39.794Z,157.18
2022-10-19T11:24:22.918Z,159.55
2022-10-19T11:26:58.802Z,160.77
2022-10-19T11:29:37.590Z,162.98
2022-10-19T11:32:12.270Z,159.63
2022-10-19T11:35:19.856Z,163.18
2022-10-19T11:38:20.164Z,161.63
2022-10-19T11:41:13.161Z,163.65
2022-10-19T11:43:54.796Z,158.45
2022-10-19T11:46:24.338Z,160.40
2022-10-19T11:49:16.237Z,166.85
2022-10-19T11:52:07.769Z,160.35
2022-10-19T11:54:49.524Z,167.13
2022-10-19T11:57:36.634Z,168.82
2022-10-19T12:00:15.479Z,165.07
2022-10-19T12:03:04.039Z,169.77
2022-10-19T12:05:46.018Z,167.02
2022-10-19T12:08:31.715Z,164.35
2022-10-19T12:11:18.788Z,169.60
2022-10-19T12:13:52.944Z,171.00
2022-10-19T12:16:21.822Z,170.88
2022-10-19T12:18:55.475Z,165.27
2022-10-19T12:21:33.795Z,168.00
2022-10-19T12:24:04.107Z,164.68
2022-10-19T12:26:35.806Z,165.18
2022-10-19T12:29:06.852Z,168.20
2022-10-19T12:31:35.719Z,166.20
2022-10-19T12:34:05.068Z,162.55
2022-10-19T12:36:50.416Z,163.30
2022-10-19T12:39:41.877Z,167.23
2022-10-19T12:42:30.338Z,164.07
2022-10-19T12:45:25.307Z,160.73
2022-10-19T12:48:18.958Z,161.50
2022-10-19T12:50:48.604Z,168.07
2022-10-19T12:53:38.689Z,170.27
2022-10-19T12:56:13.781Z,162.35
2022-10-19T12:58:48.136Z,163.82
2022-10-19T13:01:25.816Z,158.60
2022-10-19T13:04:14.307Z,161.60
2022-10-19T13:06:46.261Z,162.63
2022-10-19T13:09:47.029Z,160.32
2022-10-19T13:12:16.311Z,159.82
2022-10-19T13:15:01.576Z,156.70
2022-10-19T13:17:37.409Z,160.88
2022-10-19T13:20:13.081Z,156.88
2022-10-19T13:22:40.476Z,158.93
2022-10-19T13:25:16.182Z,153.35
2022-10-19T13:27:44.629Z,158.02
2022-10-19T13:30:36.494Z,159.15
2022-10-19T13:33:35.026Z,160.32
2022-10-19T13:36:04.538Z,165.27
2022-10-19T13:38:54.393Z,162.77
2022-10-19T13:41:44.484Z,169.65
2022-10-19T13:44:15.257Z,163.00
2022-10-19T13:47:20.578Z,167.77
2022-10-19T13:49:50.187Z,165.88
2022-10-19T13:52:36.324Z,160.50
2022-10-19T13:55:03.096Z,165.77
2022-10-19T13:57:47.868Z,162.20
2022-10-19T14:00:22.457Z,167.88
2022-10-19T14:03:10.822Z,167.15
2022-10-19T14:05:47.752Z,163.57
2022-10-19T14:08:17.357Z,160.52
2022-10-19T14:11:00.573Z,160.05
2022-10-19T14:13:29.010Z,161.45
2022-10-19T14:15:57.860Z,167.38
2022-10-19T14:18:30.025Z,160.32
2022-10-19T14:21:05.161Z,159.65
2022-10-19T14:23:34.949Z,163.10
2022-10-19T14:26:04.725Z,163.73
2022-10-19T14:28:32.166Z,162.82
2022-10-19T14:31:08.337Z,164.32
2022-10-19T14:33:39.380Z,161.35
2022-10-19T14:36:08.034Z,159.15
2022-10-19T14:38:40.447Z,157.80
2022-10-19T14:41:19.861Z,163.35
2022-10-19T14:43:46.569Z,156.07
2022-10-19T14:46:15.734Z,157.32
2022-10-19T14:48:45.586Z,161.48
2022-10-19T14:51:38.212Z,157.77
2022-10-19T14:54:23.489Z,164.40
2022-10-19T14:57:01.457Z,163.63
2022-10-19T14:59:34.348Z,157.13
2022-10-19T15:02:05.508Z,164.57
2022-10-19T15:04:36.972Z,157.70
2022-10-19T15:07:13.710Z,160.18
2022-10-19T15:09:48.380Z,159.43
2022-10-19T15:12:22.244Z,160.88
2022-10-19T15:14:49.397Z,164.85
2022-10-19T15:17:27.198Z,164.73
2022-10-19T15:19:56.131Z,160.80
2022-10-19T15:22:32.217Z,167.90
2022-10-19T15:25:01.434Z,163.18
2022-10-19T15:27:45.482Z,162.02
2022-10-19T15:30:18.198Z,163.98
2022-10-19T15:32:48.463Z,161.05
2022-10-19T15:35:21.813Z,162.57
2022-10-19T15:37:50.145Z,166.88
2022-10-19T15:40:26.214Z,166.07
2022-10-19T15:42:52.995Z,157.88
2022-10-19T15:45:33.505Z,166.65
2022-10-19T15:48:22.057Z,161.45
2022-10-19T15:50:51.933Z,160.43
2022-10-19T15:53:19.906Z,166.57
2022-10-19T15:55:46.566Z,166.10
2022-10-19T15:58:14.282Z,165.32
2022-10-19T16:00:41.945Z,164.25
2022-10-19T16:03:09.358Z,165.10
2022-10-19T16:05:36.626Z,168.52
2022-10-19T16:08:03.737Z,158.65
2022-10-19T16:10:30.518Z,168.52
2022-10-19T16:12:57.195Z,162.32
2022-10-19T16:15:23.891Z,166.95
2022-10-19T16:17:57.751Z,161.40
2022-10-19T16:20:25.452Z,160.05
2022-10-19T16:22:52.842Z,169.40
2022-10-19T16:25:19.543Z,169.80
2022-10-19T16:27:46.650Z,162.38
2022-10-19T16:30:13.791Z,164.13
2022-10-19T16:32:43.518Z,162.43
2022-10-19T16:35:10.275Z,163.98
2022-10-19T16:37:37.371Z,165.38
2022-10-19T16:40:05.371Z,162.65
2022-10-19T16:42:32.609Z,163.52
2022-10-19T16:44:59.495Z,164.48
2022-10-19T16:47:26.227Z,161.82
2022-10-19T16:49:59.969Z,166.63
2022-10-19T16:52:28.318Z,161.73
2022-10-19T16:54:55.009Z,161.05
2022-10-19T16:57:21.608Z,163.38
2022-10-19T16:59:50.839Z,161.57
2022-10-19T17:02:18.559Z,161.77
2022-10-19T17:04:45.684Z,164.55
2022-10-19T17:07:13.453Z,165.73
2022-10-19T17:09:42.191Z,162.40
2022-10-19T17:12:10.360Z,163.73
2022-10-19T17:14:40.024Z,160.57
2022-10-19T17:17:07.234Z,162.63
2022-10-19T17:19:34.392Z,167.40
2022-10-19T17:22:02.933Z,164.55
2022-10-19T17:24:29.770Z,161.15
2022-10-19T17:26:56.795Z,164.63
2022-10-19T17:29:23.899Z,162.30
2022-10-19T17:31:51.041Z,166.13
2022-10-19T17:34:18.503Z,164.15
2022-10-19T17:36:46.077Z,167.40
2022-10-19T17:39:17.663Z,167.15
2022-10-19T17:41:48.638Z,170.43
2022-10-19T17:44:16.770Z,163.60
2022-10-19T17:46:43.846Z,163.85
2022-10-19T17:49:10.905Z,165.07
2022-10-19T17:51:37.826Z,162.75
2022-10-19T17:54:12.673Z,170.82
2022-10-19T17:56:40.026Z,168.90
2022-10-19T17:59:08.987Z,169.48
2022-10-19T18:01:37.139Z,165.75
2022-10-19T18:04:04.754Z,169.10
2022-10-19T18:06:33.758Z,160.63
2022-10-19T18:09:02.899Z,163.48
2022-10-19T18:11:32.453Z,163.20
2022-10-19T18:14:00.737Z,164.45
2022-10-19T18:16:30.428Z,162.50
2022-10-19T18:18:59.041Z,159.88
2022-10-19T18:21:29.010Z,172.60
2022-10-19T18:23:57.408Z,181.20
2022-10-19T18:26:26.794Z,173.55
2022-10-19T18:28:54.417Z,170.98
2022-10-19T18:31:29.853Z,169.38
2022-10-19T18:33:58.012Z,167.95
2022-10-19T18:36:24.767Z,163.60
2022-10-19T18:38:58.168Z,168.52
2022-10-19T18:41:25.621Z,162.10
2022-10-19T18:44:04.391Z,167.13
2022-10-19T18:46:32.910Z,166.73
2022-10-19T18:49:00.482Z,166.02
2022-10-19T18:51:27.587Z,163.23
2022-10-19T18:53:55.457Z,166.63
2022-10-19T18:56:23.138Z,164.48
2022-10-19T18:58:50.411Z,166.38
2022-10-19T19:01:28.117Z,168.30
2022-10-19T19:03:56.926Z,159.57
2022-10-19T19:06:25.913Z,155.93
2022-10-19T19:08:57.277Z,165.30
2022-10-19T19:11:31.746Z,167.32
2022-10-19T19:14:21.310Z,160.32
2022-10-19T19:16:48.084Z,168.88
2022-10-19T19:19:16.576Z,162.43
2022-10-19T19:21:44.565Z,161.73
2022-10-19T19:24:18.566Z,158.43
2022-10-19T19:26:49.374Z,158.60
2022-10-19T19:29:17.453Z,165.07
2022-10-19T19:31:44.469Z,158.40
2022-10-19T19:34:11.380Z,160.13
2022-10-19T19:39:14.420Z,159.35
2022-10-19T19:41:41.094Z,160.68
2022-10-19T19:44:07.760Z,160.30
2022-10-19T19:46:35.024Z,155.27
2022-10-19T19:49:03.956Z,159.35
2022-10-19T19:51:32.258Z,164.68
2022-10-19T19:53:59.767Z,164.63
2022-10-19T19:56:27.085Z,162.93
2022-10-19T19:58:56.008Z,156.25
2022-10-19T20:01:23.275Z,152.95
2022-10-19T20:03:50.086Z,153.55
2022-10-19T20:06:22.094Z,156.13
2022-10-19T20:08:51.913Z,150.70
2022-10-19T20:11:18.604Z,150.27
2022-10-19T20:13:45.900Z,146.90
2022-10-19T20:16:15.311Z,152.95
2022-10-19T20:18:45.095Z,160.10
2022-10-19T20:21:12.574Z,152.75
2022-10-19T20:23:39.259Z,152.30
2022-10-19T20:26:06.378Z,153.50
2022-10-19T20:28:33.679Z,160.07
2022-10-19T20:31:06.224Z,162.93
2022-10-19T20:33:35.102Z,158.75
2022-10-19T20:36:07.225Z,156.15
2022-10-19T20:38:34.925Z,154.93
2022-10-19T20:41:09.779Z,155.93
2022-10-19T20:43:37.442Z,158.45
2022-10-19T20:46:10.291Z,155.80
2022-10-19T20:48:37.118Z,154.88
2022-10-19T20:51:12.646Z,150.25
2022-10-19T20:53:39.767Z,151.10
2022-10-19T20:56:08.078Z,156.88
2022-10-19T20:58:37.169Z,150.45
2022-10-19T21:01:09.955Z,146.63
2022-10-19T21:03:37.053Z,145.70
2022-10-19T21:06:08.489Z,151.20
2022-10-19T21:08:36.257Z,151.50
2022-10-19T21:11:22.056Z,148.25
2022-10-19T21:13:52.355Z,156.02
2022-10-19T21:16:21.292Z,158.07
2022-10-19T21:18:49.362Z,150.60
2022-10-19T21:21:22.027Z,149.07
2022-10-19T21:23:51.285Z,156.48
2022-10-19T21:26:17.883Z,153.95
2022-10-19T21:28:49.455Z,158.07
2022-10-19T21:31:17.625Z,148.88
2022-10-19T21:33:44.575Z,160.15
2022-10-19T21:36:12.918Z,148.55
2022-10-19T21:38:39.883Z,147.07
2022-10-19T21:41:10.640Z,150.40
2022-10-19T21:43:37.342Z,149.75
2022-10-19T21:46:11.114Z,147.30
2022-10-19T21:48:37.948Z,149.73
2022-10-19T21:51:16.737Z,150.85
2022-10-19T21:53:44.007Z,157.90
2022-10-19T21:56:10.629Z,156.13
2022-10-19T21:58:37.215Z,154.20
2022-10-19T22:01:07.789Z,157.88
2022-10-19T22:03:34.789Z,151.40
2022-10-19T22:06:01.562Z,151.15
2022-10-19T22:08:30.281Z,151.20
2022-10-19T22:10:56.878Z,149.73
2022-10-19T22:13:23.493Z,151.02
2022-10-19T22:15:50.130Z,149.55
2022-10-19T22:18:16.733Z,148.95
2022-10-19T22:20:43.350Z,155.65
2022-10-19T22:23:09.977Z,149.93
2022-10-19T22:25:36.569Z,156.60
2022-10-19T22:28:03.380Z,155.95
2022-10-19T22:30:30.047Z,147.50
2022-10-19T22:32:56.839Z,151.27
2022-10-19T22:35:23.423Z,148.88
2022-10-19T22:37:50.045Z,148.60
2022-10-19T22:40:16.823Z,148.50
2022-10-19T22:43:40.009Z,150.02
2022-10-19T22:47:21.864Z,145.85
2022-10-19T22:51:04.092Z,146.77
2022-10-19T22:53:49.460Z,138.25
2022-10-19T22:56:16.107Z,142.45
2022-10-19T22:58:42.822Z,142.02
2022-10-19T23:01:12.438Z,144.40
2022-10-19T23:03:40.395Z,141.43
2022-10-19T23:06:12.913Z,151.70
2022-10-19T23:08:40.069Z,147.55
2022-10-19T23:11:06.816Z,136.80
2022-10-19T23:13:33.575Z,143.73
2022-10-19T23:16:00.239Z,138.27
2022-10-19T23:18:27.157Z,136.65
2022-10-19T23:20:58.367Z,146.15
2022-10-19T23:23:41.364Z,144.85
2022-10-19T23:26:14.268Z,142.93
2022-10-19T23:28:44.291Z,141.68
2022-10-19T23:31:26.646Z,143.98
2022-10-19T23:33:54.687Z,151.02
2022-10-19T23:36:27.223Z,134.30
2022-10-19T23:38:55.405Z,139.60
2022-10-19T23:41:22.474Z,135.50
2022-10-19T23:43:49.490Z,146.05
2022-10-19T23:46:16.274Z,145.43
2022-10-19T23:48:43.181Z,148.55
2022-10-19T23:51:12.504Z,141.25
2022-10-19T23:53:41.609Z,147.68
2022-10-19T23:56:11.939Z,139.02
2022-10-19T23:58:38.683Z,138.13
